Time;durP1;ratioP1;P1;durP2;ratioP2;P2;SDS_P1;SDS_P2;PMS_P1;PMS_P2;Temp;Humidity;BMP_temperature;BMP_pressure;BME280_temperature;BME280_humidity;BME280_pressure;Samples;Min_cycle;Max_cycle;Signal;HPM_P1;HPM_P2
2022/05/29 00:00:56;;;;;;;6.05;2.45;;;6.00;97.30;;;;;;5052136;28;20029;-66
2022/05/29 00:03:22;;;;;;;5.65;2.47;;;5.90;97.30;;;;;;5055897;28;20094;-67
2022/05/29 00:05:49;;;;;;;10.02;2.75;;;5.90;97.30;;;;;;5055162;28;20057;-66
2022/05/29 00:08:24;;;;;;;7.68;2.63;;;5.80;97.40;;;;;;5054887;28;20029;-67
2022/05/29 00:10:50;;;;;;;5.63;2.22;;;5.80;97.40;;;;;;5055036;28;20033;-66
2022/05/29 00:13:16;;;;;;;5.97;2.63;;;5.80;97.40;;;;;;5056081;28;20044;-65
2022/05/29 00:15:41;;;;;;;6.13;2.67;;;5.80;97.40;;;;;;5055902;28;20033;-67
2022/05/29 00:18:08;;;;;;;5.90;2.65;;;5.80;97.40;;;;;;5055716;28;20063;-66
2022/05/29 00:20:35;;;;;;;5.47;2.65;;;5.80;97.60;;;;;;5051157;28;20024;-66
2022/05/29 00:23:00;;;;;;;9.02;2.60;;;5.90;97.50;;;;;;5055836;28;20025;-65
2022/05/29 00:25:26;;;;;;;10.68;2.20;;;6.00;97.50;;;;;;5053682;28;20033;-65
2022/05/29 00:27:52;;;;;;;6.07;2.33;;;5.90;97.50;;;;;;5055317;28;20029;-66
2022/05/29 00:30:18;;;;;;;5.85;2.20;;;6.00;97.50;;;;;;5054558;28;20035;-65
2022/05/29 00:32:43;;;;;;;8.52;2.90;;;5.90;97.40;;;;;;5055594;28;20041;-66
2022/05/29 00:35:09;;;;;;;6.18;2.38;;;6.00;97.50;;;;;;5055580;28;20032;-67
2022/05/29 00:37:38;;;;;;;6.85;2.85;;;6.00;97.50;;;;;;5053964;28;21732;-66
2022/05/29 00:40:31;;;;;;;7.82;2.35;;;5.90;97.50;;;;;;5054762;28;20036;-67
2022/05/29 00:42:57;;;;;;;6.43;2.45;;;5.90;97.50;;;;;;5055222;28;20021;-67
2022/05/29 00:45:24;;;;;;;7.50;2.50;;;5.90;97.60;;;;;;5055802;28;20310;-67
2022/05/29 00:47:50;;;;;;;7.47;2.58;;;5.80;97.50;;;;;;5053415;28;20511;-66
2022/05/29 00:50:20;;;;;;;5.65;2.42;;;5.70;97.40;;;;;;5056027;28;20053;-67
2022/05/29 00:52:46;;;;;;;10.32;2.85;;;5.60;97.50;;;;;;5055118;28;20031;-67
2022/05/29 00:55:17;;;;;;;7.25;2.75;;;5.60;97.50;;;;;;5054479;28;20380;-67
2022/05/29 00:57:52;;;;;;;6.85;2.67;;;5.50;97.40;;;;;;5053747;28;20418;-67
2022/05/29 01:00:27;;;;;;;6.03;2.80;;;5.30;97.20;;;;;;5052483;28;20016;-67
2022/05/29 01:02:55;;;;;;;4.63;2.38;;;5.30;97.30;;;;;;5052949;28;20357;-67
2022/05/29 01:05:24;;;;;;;6.13;2.75;;;5.30;97.30;;;;;;5053739;28;20023;-66
2022/05/29 01:08:07;;;;;;;6.18;3.10;;;5.20;97.30;;;;;;5053745;28;20422;-67
2022/05/29 01:10:52;;;;;;;9.02;2.90;;;5.30;97.30;;;;;;5050678;28;20040;-67
2022/05/29 01:13:43;;;;;;;5.63;2.60;;;5.30;97.30;;;;;;5044201;28;20025;-67
2022/05/29 01:16:30;;;;;;;7.43;3.10;;;5.30;97.30;;;;;;5053451;28;20064;-67
2022/05/29 01:19:16;;;;;;;9.07;2.85;;;5.30;97.40;;;;;;5054895;28;20322;-67
2022/05/29 01:22:12;;;;;;;6.20;2.60;;;5.30;97.30;;;;;;5054559;28;20032;-67
2022/05/29 01:25:28;;;;;;;6.45;3.03;;;5.40;97.50;;;;;;5051986;28;20496;-66
2022/05/29 01:28:10;;;;;;;;;;;5.30;97.50;;;;;;5067454;28;20066;-67
2022/05/29 01:30:55;;;;;;;7.90;2.70;;;5.30;97.30;;;;;;5052229;28;20213;-68
2022/05/29 01:33:47;;;;;;;6.13;2.55;;;5.20;97.40;;;;;;5049486;28;20029;-67
2022/05/29 01:36:29;;;;;;;6.93;3.67;;;5.10;97.20;;;;;;5053175;28;20025;-67
2022/05/29 01:39:00;;;;;;;10.52;3.15;;;5.00;97.10;;;;;;5048366;28;20349;-67
2022/05/29 01:41:35;;;;;;;7.82;3.05;;;5.00;97.10;;;;;;5053330;28;20106;-67
2022/05/29 01:44:08;;;;;;;7.78;2.95;;;5.10;97.30;;;;;;5052799;28;20025;-67
2022/05/29 01:46:35;;;;;;;9.45;2.88;;;5.20;97.50;;;;;;5055173;28;20032;-67
2022/05/29 01:49:26;;;;;;;7.97;3.00;;;5.10;97.50;;;;;;5053085;28;20036;-67
2022/05/29 01:52:14;;;;;;;8.07;2.67;;;5.10;97.40;;;;;;5053817;28;20032;-67
2022/05/29 01:54:46;;;;;;;7.40;2.88;;;5.00;97.20;;;;;;5054031;28;20482;-67
2022/05/29 01:57:17;;;;;;;7.72;2.80;;;5.00;97.20;;;;;;5053732;28;20033;-67
2022/05/29 01:59:47;;;;;;;5.55;2.88;;;4.90;97.10;;;;;;5054174;28;20033;-67
2022/05/29 02:02:18;;;;;;;8.75;3.42;;;4.90;96.90;;;;;;5052279;28;20021;-67
2022/05/29 02:04:49;;;;;;;5.60;2.90;;;4.90;97.10;;;;;;5054707;28;20048;-67
2022/05/29 02:10:22;;;;;;;5.68;3.00;;;4.80;96.90;;;;;;5052300;28;20101;-67
2022/05/29 02:13:29;;;;;;;7.03;3.45;;;4.80;96.80;;;;;;5054874;28;20033;-66
2022/05/29 02:16:03;;;;;;;7.57;3.08;;;4.80;96.70;;;;;;5051667;28;20045;-68
2022/05/29 02:18:39;;;;;;;6.15;3.05;;;4.80;96.70;;;;;;5058354;28;20036;-68
2022/05/29 02:21:20;;;;;;;6.65;3.38;;;4.90;97.00;;;;;;5057052;28;20029;-68
2022/05/29 02:23:53;;;;;;;9.50;3.10;;;4.90;97.10;;;;;;5058776;28;20111;-68
2022/05/29 02:26:23;;;;;;;6.93;2.75;;;4.70;96.90;;;;;;5054921;28;20118;-68
2022/05/29 02:28:59;;;;;;;9.25;3.45;;;4.50;96.50;;;;;;5057726;28;20020;-67
2022/05/29 02:31:46;;;;;;;8.15;3.10;;;4.50;96.10;;;;;;5056247;28;20029;-67
2022/05/29 02:34:44;;;;;;;7.32;3.15;;;4.50;96.00;;;;;;5056926;28;20029;-68
2022/05/29 02:37:32;;;;;;;5.68;3.25;;;4.50;95.80;;;;;;5053756;28;20051;-67
2022/05/29 02:40:36;;;;;;;8.13;3.03;;;4.60;96.00;;;;;;5058951;28;20041;-68
2022/05/29 02:43:23;;;;;;;7.97;3.17;;;4.60;96.30;;;;;;5058269;28;20110;-67
2022/05/29 02:46:09;;;;;;;7.80;3.40;;;4.50;96.10;;;;;;5055533;28;20028;-68
2022/05/29 02:48:52;;;;;;;6.85;3.15;;;4.40;96.00;;;;;;5055440;28;20295;-67
2022/05/29 02:51:45;;;;;;;9.93;3.17;;;4.40;95.60;;;;;;5053385;28;20108;-67
2022/05/29 02:54:22;;;;;;;8.30;2.95;;;4.50;95.80;;;;;;5058387;28;20025;-67
2022/05/29 02:56:47;;;;;;;8.07;3.35;;;4.40;95.70;;;;;;5053857;28;20057;-68
2022/05/29 02:59:13;;;;;;;6.85;3.22;;;4.30;95.80;;;;;;5056069;28;20060;-67
2022/05/29 03:01:46;;;;;;;9.60;4.47;;;4.20;95.40;;;;;;5055373;28;20031;-67
2022/05/29 03:04:31;;;;;;;7.60;3.80;;;4.10;95.50;;;;;;5045237;28;20028;-67
2022/05/29 03:07:12;;;;;;;9.57;4.13;;;4.00;94.70;;;;;;5055486;28;20079;-68
2022/05/29 03:09:49;;;;;;;10.48;3.95;;;4.00;94.20;;;;;;5054700;28;20029;-67
2022/05/29 03:12:46;;;;;;;10.02;3.78;;;4.10;94.00;;;;;;5050076;28;20132;-67
2022/05/29 03:15:24;;;;;;;6.50;3.42;;;4.10;93.80;;;;;;5053487;28;20091;-67
2022/05/29 03:18:12;;;;;;;7.28;3.33;;;4.20;93.80;;;;;;5051783;28;20025;-67
2022/05/29 03:20:44;;;;;;;8.05;4.10;;;4.40;94.60;;;;;;5056656;28;20025;-67
2022/05/29 03:23:31;;;;;;;11.18;4.32;;;4.40;95.10;;;;;;5055152;28;20303;-67
2022/05/29 03:26:10;;;;;;;7.22;3.58;;;4.30;95.50;;;;;;5053777;28;20028;-67
2022/05/29 03:28:43;;;;;;;7.40;3.45;;;4.10;95.30;;;;;;5051728;28;20029;-67
2022/05/29 03:31:17;;;;;;;7.47;3.60;;;4.00;94.70;;;;;;5055989;28;20025;-67
2022/05/29 03:33:46;;;;;;;7.22;3.63;;;4.10;94.40;;;;;;5057348;28;20324;-67
2022/05/29 03:36:15;;;;;;;7.82;4.20;;;4.20;94.10;;;;;;5053081;28;20059;-67
2022/05/29 03:38:41;;;;;;;9.82;4.03;;;4.30;94.40;;;;;;5055326;28;20118;-68
2022/05/29 03:41:23;;;;;;;9.38;4.50;;;4.40;94.70;;;;;;5052870;28;20056;-67
2022/05/29 03:43:48;;;;;;;7.57;3.53;;;4.50;95.00;;;;;;5045056;28;20106;-67
2022/05/29 03:46:15;;;;;;;7.35;4.00;;;4.50;95.00;;;;;;5054250;28;20068;-67
2022/05/29 03:48:41;;;;;;;6.68;4.10;;;4.50;95.20;;;;;;5057024;28;20036;-67
2022/05/29 03:51:07;;;;;;;6.32;3.25;;;4.50;95.10;;;;;;5055503;28;20041;-67
2022/05/29 03:53:34;;;;;;;10.05;3.85;;;4.50;95.10;;;;;;5057023;28;20025;-67
2022/05/29 03:56:00;;;;;;;7.45;3.90;;;4.50;95.40;;;;;;5054539;28;20414;-67
2022/05/29 03:58:26;;;;;;;8.45;4.00;;;4.60;95.30;;;;;;5055298;28;20256;-68
2022/05/29 04:00:52;;;;;;;7.47;4.03;;;4.60;95.30;;;;;;5056088;28;20025;-67
2022/05/29 04:03:18;;;;;;;7.63;3.83;;;4.60;95.50;;;;;;5056697;28;20029;-67
2022/05/29 04:05:44;;;;;;;8.90;3.88;;;4.60;95.70;;;;;;5054271;28;20078;-67
2022/05/29 04:13:43;;;;;;;8.38;3.97;;;4.60;95.60;;;;;;5054657;28;19986;-67
2022/05/29 04:16:09;;;;;;;7.32;3.85;;;4.60;95.40;;;;;;5053046;28;20321;-67
2022/05/29 04:18:37;;;;;;;8.00;3.75;;;4.70;95.80;;;;;;5056347;28;20040;-68
2022/05/29 04:21:05;;;;;;;7.28;3.60;;;4.80;95.60;;;;;;5052565;28;20025;-67
2022/05/29 04:23:31;;;;;;;10.70;4.00;;;4.90;96.00;;;;;;5046033;28;20365;-67
2022/05/29 04:25:57;;;;;;;7.90;4.35;;;4.90;96.50;;;;;;5052045;28;20094;-68
2022/05/29 04:28:22;;;;;;;9.02;4.03;;;4.90;97.00;;;;;;5054375;28;20020;-67
2022/05/29 04:30:51;;;;;;;8.77;3.78;;;4.90;96.90;;;;;;5053149;28;20091;-67
2022/05/29 04:33:17;;;;;;;7.38;3.95;;;4.80;96.70;;;;;;5056030;28;20029;-67
2022/05/29 04:35:47;;;;;;;9.02;4.18;;;4.70;96.30;;;;;;5051732;28;20032;-67
2022/05/29 04:38:13;;;;;;;7.18;3.55;;;4.70;96.00;;;;;;5053963;28;20129;-67
2022/05/29 04:40:41;;;;;;;7.18;3.40;;;4.70;95.90;;;;;;5052774;28;20020;-67
2022/05/29 04:43:07;;;;;;;6.22;3.58;;;4.80;95.30;;;;;;5056296;28;20021;-68
2022/05/29 04:45:34;;;;;;;15.63;8.60;;;4.90;95.60;;;;;;5053291;28;20426;-67
2022/05/29 04:47:59;;;;;;;7.18;4.65;;;4.90;95.90;;;;;;5055332;28;20033;-67
2022/05/29 04:50:25;;;;;;;6.70;3.83;;;4.90;96.20;;;;;;5055196;28;20035;-67
2022/05/29 04:52:51;;;;;;;7.82;3.90;;;4.80;96.40;;;;;;5056024;28;20040;-68
2022/05/29 04:55:18;;;;;;;9.85;4.13;;;4.80;96.00;;;;;;5053507;28;20303;-67
2022/05/29 04:57:43;;;;;;;9.73;4.70;;;4.80;95.50;;;;;;5055036;28;20013;-67
2022/05/29 05:00:12;;;;;;;7.88;4.03;;;4.90;95.40;;;;;;5053294;28;20028;-66
2022/05/29 05:02:38;;;;;;;8.02;3.90;;;5.00;95.10;;;;;;5055326;28;20057;-66
2022/05/29 05:05:04;;;;;;;8.15;3.78;;;5.20;96.00;;;;;;5053654;28;20564;-67
2022/05/29 05:07:30;;;;;;;6.22;3.55;;;5.40;96.70;;;;;;5055364;28;20168;-67
2022/05/29 05:09:56;;;;;;;7.95;3.65;;;5.70;97.10;;;;;;5055256;28;20141;-66
2022/05/29 05:12:21;;;;;;;6.72;3.50;;;5.80;97.60;;;;;;5050682;28;20052;-68
2022/05/29 05:14:47;;;;;;;7.45;3.60;;;5.90;97.90;;;;;;5053129;28;20036;-68
2022/05/29 05:17:13;;;;;;;7.35;3.85;;;5.90;98.00;;;;;;5054460;28;20017;-68
2022/05/29 05:19:39;;;;;;;8.10;3.35;;;6.00;98.00;;;;;;5055669;28;20094;-68
2022/05/29 05:22:08;;;;;;;10.90;4.82;;;6.10;98.00;;;;;;5054579;28;20485;-68
2022/05/29 05:24:35;;;;;;;7.90;3.53;;;6.30;98.00;;;;;;5054335;28;20017;-68
2022/05/29 05:27:01;;;;;;;7.18;3.03;;;6.40;98.00;;;;;;5051976;28;20017;-68
2022/05/29 05:29:26;;;;;;;6.85;3.50;;;6.60;98.00;;;;;;5054996;28;20306;-68
2022/05/29 05:31:52;;;;;;;9.63;3.25;;;6.80;98.00;;;;;;5053219;28;20025;-68
2022/05/29 05:34:18;;;;;;;8.05;3.20;;;7.00;98.00;;;;;;5053076;28;20036;-67
2022/05/29 05:36:43;;;;;;;7.43;3.20;;;7.10;98.00;;;;;;5052481;28;20033;-68
2022/05/29 05:39:09;;;;;;;7.55;3.60;;;7.30;97.70;;;;;;5052995;28;20041;-68
2022/05/29 05:41:35;;;;;;;7.95;3.78;;;7.50;97.60;;;;;;5052943;28;20032;-68
2022/05/29 05:44:02;;;;;;;6.45;3.28;;;7.70;97.30;;;;;;5054430;28;20025;-68
2022/05/29 05:46:27;;;;;;;11.35;3.97;;;7.90;97.10;;;;;;5054812;28;20061;-68
2022/05/29 05:48:53;;;;;;;7.28;4.07;;;8.00;96.40;;;;;;5054725;28;20452;-68
2022/05/29 05:51:19;;;;;;;8.95;3.25;;;8.10;96.20;;;;;;5052503;28;20029;-68
2022/05/29 05:53:45;;;;;;;6.78;3.60;;;8.20;95.90;;;;;;5055016;28;20437;-67
2022/05/29 05:56:16;;;;;;;6.65;3.72;;;8.40;95.70;;;;;;5052236;28;20028;-68
2022/05/29 05:58:43;;;;;;;7.70;3.85;;;8.60;95.20;;;;;;5053648;28;20112;-68
2022/05/29 06:01:12;;;;;;;6.22;3.25;;;8.80;94.80;;;;;;5052923;28;20025;-67
2022/05/29 06:03:38;;;;;;;7.85;3.45;;;9.00;94.70;;;;;;5050975;28;20036;-67
2022/05/29 06:06:05;;;;;;;6.85;3.40;;;9.20;93.90;;;;;;5052695;28;20025;-68
2022/05/29 06:08:31;;;;;;;10.52;4.13;;;9.20;92.90;;;;;;5053544;28;20036;-67
2022/05/29 06:10:59;;;;;;;7.63;3.35;;;9.40;93.40;;;;;;5049643;28;20048;-68
2022/05/29 06:13:25;;;;;;;9.38;4.38;;;9.40;93.50;;;;;;5053988;28;20021;-68
2022/05/29 06:15:52;;;;;;;6.43;3.22;;;9.50;93.00;;;;;;5052021;28;20422;-67
2022/05/29 06:18:18;;;;;;;7.75;3.55;;;9.50;92.80;;;;;;5054112;28;20029;-68
2022/05/29 06:20:45;;;;;;;10.02;3.67;;;9.60;92.40;;;;;;5053106;28;20017;-68
2022/05/29 06:23:12;;;;;;;8.27;3.60;;;9.60;92.60;;;;;;5052956;28;20318;-68
2022/05/29 06:25:42;;;;;;;7.20;3.42;;;9.60;93.10;;;;;;5051190;28;20025;-68
2022/05/29 06:28:08;;;;;;;9.00;3.15;;;9.50;92.70;;;;;;5051899;28;20417;-67
2022/05/29 06:30:35;;;;;;;6.68;3.25;;;9.70;93.10;;;;;;5052223;28;20415;-67
2022/05/29 06:33:01;;;;;;;7.68;3.22;;;9.90;92.50;;;;;;5054393;28;20047;-68
2022/05/29 06:35:28;;;;;;;9.45;3.30;;;10.30;92.00;;;;;;5052464;28;20048;-68
2022/05/29 06:37:53;;;;;;;8.80;3.58;;;10.40;90.60;;;;;;5054408;28;20044;-67
2022/05/29 06:40:19;;;;;;;7.60;3.55;;;10.40;91.10;;;;;;5051765;28;20032;-68
2022/05/29 06:42:45;;;;;;;6.38;3.40;;;10.40;91.10;;;;;;5055204;28;20025;-68
2022/05/29 06:45:11;;;;;;;12.85;4.00;;;10.60;90.10;;;;;;5053579;28;20036;-67
2022/05/29 06:47:39;;;;;;;9.85;3.05;;;10.80;89.10;;;;;;5051400;28;20064;-68
2022/05/29 06:50:05;;;;;;;12.18;3.10;;;10.90;89.30;;;;;;5051773;28;20075;-68
2022/05/29 06:52:32;;;;;;;7.07;3.25;;;11.10;89.10;;;;;;5047877;28;20036;-68
2022/05/29 06:54:59;;;;;;;6.05;2.75;;;11.40;88.50;;;;;;5054507;28;20079;-68
2022/05/29 06:57:40;;;;;;;8.63;3.22;;;11.90;86.00;;;;;;5053668;28;20291;-68
2022/05/29 07:08:28;;;;;;;7.70;2.60;;;13.50;81.50;;;;;;5057063;28;20079;-68
2022/05/29 07:10:56;;;;;;;5.75;2.50;;;14.30;78.90;;;;;;5047337;28;20033;-68
2022/05/29 07:13:23;;;;;;;5.30;2.03;;;14.70;77.30;;;;;;5057986;28;20024;-68
2022/05/29 07:15:49;;;;;;;6.28;2.10;;;15.00;74.90;;;;;;5058978;28;20425;-68
2022/05/29 07:18:15;;;;;;;7.72;2.15;;;15.60;75.80;;;;;;5057394;28;20111;-69
2022/05/29 07:20:41;;;;;;;6.70;2.40;;;15.80;73.70;;;;;;5058025;28;20440;-68
2022/05/29 07:23:06;;;;;;;5.35;2.03;;;15.70;72.60;;;;;;5057528;28;20028;-68
2022/05/29 07:25:32;;;;;;;5.22;2.15;;;15.60;73.00;;;;;;5055145;28;20388;-68
2022/05/29 07:28:01;;;;;;;5.10;2.15;;;15.70;72.00;;;;;;5055007;28;20025;-68
2022/05/29 07:30:27;;;;;;;6.13;2.35;;;15.20;72.40;;;;;;5057170;28;20029;-68
2022/05/29 07:32:52;;;;;;;6.78;2.10;;;14.80;74.10;;;;;;5057726;28;20087;-68
2022/05/29 07:35:18;;;;;;;4.22;1.90;;;14.70;74.30;;;;;;5056980;28;20440;-68
2022/05/29 07:37:44;;;;;;;6.20;2.20;;;14.80;74.00;;;;;;5055737;28;20052;-68
2022/05/29 07:40:11;;;;;;;6.88;2.10;;;14.70;74.40;;;;;;5056245;28;20021;-67
2022/05/29 07:45:22;;;;;;;7.05;2.55;;;13.90;76.90;;;;;;5057175;28;20114;-67
2022/05/29 07:47:47;;;;;;;6.30;2.38;;;13.90;78.60;;;;;;5055405;28;20025;-67
2022/05/29 07:50:16;;;;;;;6.28;2.50;;;13.80;77.70;;;;;;5056785;28;20159;-66
2022/05/29 07:52:42;;;;;;;7.65;2.40;;;13.50;78.30;;;;;;5056144;28;20025;-66
2022/05/29 07:55:08;;;;;;;6.10;2.17;;;13.40;79.80;;;;;;5056661;28;20325;-67
2022/05/29 07:57:34;;;;;;;6.28;2.40;;;13.10;80.00;;;;;;5055415;28;20075;-66
2022/05/29 08:00:00;;;;;;;7.70;2.97;;;12.80;80.60;;;;;;5056303;28;20033;-66
2022/05/29 08:02:25;;;;;;;10.93;3.70;;;12.20;85.20;;;;;;5056409;28;20020;-67
2022/05/29 08:04:52;;;;;;;12.70;4.80;;;11.50;90.10;;;;;;5053952;28;20422;-68
2022/05/29 08:07:20;;;;;;;9.73;4.90;;;10.60;94.10;;;;;;5054951;28;20025;-69
2022/05/29 08:09:46;;;;;;;9.43;4.35;;;9.80;95.20;;;;;;5055079;28;20029;-70
2022/05/29 08:12:15;;;;;;;12.82;5.18;;;9.40;96.40;;;;;;5054389;28;20079;-69
2022/05/29 08:14:40;;;;;;;8.77;4.20;;;9.20;96.30;;;;;;5055854;28;20306;-69
2022/05/29 08:17:09;;;;;;;9.15;4.15;;;9.00;96.40;;;;;;5052774;28;20163;-69
2022/05/29 08:19:35;;;;;;;9.02;5.05;;;8.80;96.40;;;;;;5055927;28;20025;-69
2022/05/29 08:22:01;;;;;;;11.35;4.35;;;8.80;96.10;;;;;;5055526;28;20013;-69
2022/05/29 08:32:39;;;;;;;9.48;4.10;;;9.30;96.80;;;;;;5056434;28;20338;-69
2022/05/29 08:35:04;;;;;;;8.32;4.93;;;9.60;97.20;;;;;;5054903;28;20029;-68
2022/05/29 08:37:30;;;;;;;7.13;3.67;;;10.10;97.40;;;;;;5055520;28;20045;-69
2022/05/29 08:39:56;;;;;;;9.07;3.33;;;11.20;97.10;;;;;;5054839;28;20315;-68
2022/05/29 08:42:27;;;;;;;8.25;2.88;;;12.70;96.20;;;;;;5054098;28;20326;-68
2022/05/29 08:44:53;;;;;;;7.28;2.45;;;13.60;90.10;;;;;;5056711;28;20318;-67
2022/05/29 08:47:27;;;;;;;5.55;2.40;;;14.80;88.60;;;;;;5056552;28;20024;-68
2022/05/29 08:49:53;;;;;;;5.78;2.92;;;15.90;80.60;;;;;;5056292;28;20029;-68
2022/05/29 08:52:22;;;;;;;6.65;2.58;;;15.60;80.20;;;;;;5056130;28;20029;-67
2022/05/29 08:55:06;;;;;;;4.22;2.13;;;15.80;81.10;;;;;;5054450;28;20033;-67
2022/05/29 08:57:37;;;;;;;5.30;2.13;;;16.20;81.30;;;;;;5034275;28;20407;-68
2022/05/29 09:00:24;;;;;;;7.78;2.63;;;16.40;78.50;;;;;;5045727;28;20064;-67
2022/05/29 09:03:08;;;;;;;7.45;2.50;;;15.90;79.30;;;;;;5056149;28;20021;-67
2022/05/29 09:05:38;;;;;;;;;;;15.50;79.80;;;;;;5056108;28;20025;-68
2022/05/29 09:08:16;;;;;;;4.80;2.33;;;16.00;83.00;;;;;;5056226;28;20382;-67
2022/05/29 09:10:45;;;;;;;7.10;2.28;;;17.30;79.00;;;;;;5051501;28;20021;-67
2022/05/29 09:13:42;;;;;;;5.93;2.05;;;18.00;72.80;;;;;;5054348;28;20040;-68
2022/05/29 09:16:18;;;;;;;5.03;2.00;;;19.30;72.70;;;;;;5047499;28;20045;-67
2022/05/29 09:19:13;;;;;;;6.50;2.50;;;18.60;70.30;;;;;;5054466;28;20036;-66
2022/05/29 09:21:54;;;;;;;9.13;3.70;;;16.30;75.30;;;;;;5039944;28;20026;-67
2022/05/29 09:24:44;;;;;;;9.70;3.03;;;13.50;82.00;;;;;;5030080;28;20033;-66
2022/05/29 09:27:13;;;;;;;10.13;3.45;;;11.50;87.60;;;;;;5025024;28;20128;-68
2022/05/29 09:29:39;;;;;;;7.90;3.55;;;10.10;92.80;;;;;;5034535;28;21450;-67
2022/05/29 09:32:09;;;;;;;9.05;3.95;;;9.40;95.20;;;;;;5027350;28;20024;-67
2022/05/29 09:34:34;;;;;;;12.20;5.35;;;9.00;96.40;;;;;;5031599;28;20051;-67
2022/05/29 09:37:10;;;;;;;12.38;4.68;;;8.80;95.90;;;;;;5035517;28;20045;-67
2022/05/29 09:39:45;;;;;;;13.43;4.05;;;8.90;96.90;;;;;;5028842;28;20275;-67
2022/05/29 09:42:17;;;;;;;8.90;3.97;;;9.00;96.40;;;;;;5027201;28;20171;-67
2022/05/29 09:45:14;;;;;;;9.88;4.80;;;9.00;95.90;;;;;;5035416;28;20813;-67
2022/05/29 09:50:42;;;;;;;;;;;9.00;97.70;;;;;;5030232;28;20043;-67
2022/05/29 09:53:25;;;;;;;11.50;4.60;;;8.90;96.80;;;;;;5027826;28;19916;-68
2022/05/29 09:56:04;;;;;;;10.88;4.10;;;9.20;97.40;;;;;;5030162;28;20078;-67
2022/05/29 09:58:45;;;;;;;8.55;3.70;;;9.30;96.60;;;;;;5033925;28;20025;-66
2022/05/29 10:01:11;;;;;;;7.32;3.30;;;9.50;95.70;;;;;;5027815;28;20037;-67
2022/05/29 10:03:44;;;;;;;8.00;3.20;;;9.80;94.90;;;;;;5029685;28;20087;-68
2022/05/29 10:06:14;;;;;;;8.23;3.00;;;10.30;95.40;;;;;;5030196;28;20032;-68
2022/05/29 10:08:40;;;;;;;6.13;2.65;;;11.60;95.40;;;;;;5027213;28;21737;-67
2022/05/29 10:11:26;;;;;;;8.55;2.40;;;14.10;87.50;;;;;;5031923;28;20036;-68
2022/05/29 10:13:52;;;;;;;9.25;2.83;;;16.00;79.90;;;;;;5029612;28;20853;-68
2022/05/29 10:16:36;;;;;;;6.88;2.17;;;17.70;76.80;;;;;;5030205;28;20033;-66
2022/05/29 10:19:04;;;;;;;5.70;2.05;;;18.80;73.00;;;;;;5031749;28;20025;-65
2022/05/29 10:21:36;;;;;;;7.75;2.42;;;18.70;69.90;;;;;;5033655;28;21537;-66
2022/05/29 10:24:22;;;;;;;5.95;1.85;;;18.30;69.60;;;;;;5030351;28;20027;-67
2022/05/29 10:26:51;;;;;;;7.00;2.30;;;18.00;70.70;;;;;;5032134;28;20402;-67
2022/05/29 10:29:31;;;;;;;5.55;2.10;;;18.00;71.00;;;;;;5032738;28;20029;-67
2022/05/29 10:31:59;;;;;;;6.55;1.92;;;17.10;72.40;;;;;;5029440;28;20048;-66
2022/05/29 10:34:28;;;;;;;4.78;1.70;;;15.90;75.40;;;;;;5033592;28;20037;-67
2022/05/29 10:36:56;;;;;;;6.30;2.15;;;14.60;77.30;;;;;;5030486;28;20674;-66
2022/05/29 10:39:25;;;;;;;6.97;2.17;;;13.80;80.40;;;;;;5047307;28;20112;-67
2022/05/29 10:41:54;;;;;;;5.88;2.08;;;13.60;82.30;;;;;;5054615;28;20105;-65
2022/05/29 10:44:41;;;;;;;6.03;2.03;;;13.50;82.60;;;;;;5044401;28;20043;-66
2022/05/29 10:47:09;;;;;;;7.90;2.47;;;13.50;82.60;;;;;;5051486;28;20020;-65
2022/05/29 10:49:59;;;;;;;8.18;2.13;;;13.20;82.60;;;;;;5052066;28;20029;-66
2022/05/29 10:53:06;;;;;;;5.93;1.98;;;12.90;83.00;;;;;;5052513;28;20035;-65
2022/05/29 10:55:51;;;;;;;5.72;2.22;;;12.90;84.30;;;;;;5048910;28;20821;-66
2022/05/29 10:58:49;;;;;;;6.00;2.20;;;12.90;82.40;;;;;;5052718;28;20025;-66
2022/05/29 11:04:43;;;;;;;6.05;2.47;;;12.50;84.70;;;;;;5051810;28;20035;-67
2022/05/29 11:07:59;;;;;;;6.18;2.42;;;12.40;85.20;;;;;;5051663;28;20017;-67
2022/05/29 11:10:31;;;;;;;6.70;2.33;;;12.40;84.80;;;;;;5048825;28;20071;-67
2022/05/29 11:13:04;;;;;;;6.07;2.30;;;12.30;85.30;;;;;;5051311;28;20426;-67
2022/05/29 11:15:53;;;;;;;5.53;1.70;;;11.90;85.00;;;;;;5051439;28;20419;-66
2022/05/29 11:18:43;;;;;;;4.32;1.90;;;11.90;86.70;;;;;;5050167;28;20035;-67
2022/05/29 11:21:36;;;;;;;7.00;2.08;;;12.40;86.30;;;;;;5050879;28;20056;-67
2022/05/29 11:24:20;;;;;;;7.35;1.80;;;13.60;82.90;;;;;;5048737;28;20021;-67
2022/05/29 11:27:21;;;;;;;7.50;1.98;;;14.10;80.10;;;;;;5048343;28;20064;-67
2022/05/29 11:30:22;;;;;;;8.40;2.78;;;14.80;78.90;;;;;;5051398;28;20577;-67
2022/05/29 11:33:14;;;;;;;8.43;3.80;;;14.90;76.80;;;;;;5050763;28;20456;-67
2022/05/29 11:35:58;;;;;;;5.60;2.70;;;15.00;76.00;;;;;;5049603;28;20123;-67
2022/05/29 11:38:58;;;;;;;7.85;2.97;;;14.90;75.20;;;;;;5052170;28;20120;-67
2022/05/29 11:41:29;;;;;;;5.75;2.47;;;14.60;75.00;;;;;;5051789;28;20048;-67
2022/05/29 11:44:25;;;;;;;4.55;1.75;;;14.90;76.10;;;;;;5047816;28;20036;-67
2022/05/29 11:52:44;;;;;;;7.03;1.70;;;15.90;73.80;;;;;;5051396;28;20151;-67
2022/05/29 11:55:22;;;;;;;5.60;1.90;;;15.70;72.80;;;;;;5050988;28;20532;-67
2022/05/29 11:57:56;;;;;;;6.38;2.30;;;14.80;75.10;;;;;;5051150;28;20425;-68
2022/05/29 12:00:51;;;;;;;6.47;2.60;;;13.90;79.70;;;;;;5052407;28;20063;-67
2022/05/29 12:03:27;;;;;;;7.45;2.25;;;12.80;83.70;;;;;;5051614;28;20333;-67
2022/05/29 12:06:00;;;;;;;5.32;2.22;;;12.50;85.00;;;;;;5051816;28;20025;-67
2022/05/29 12:08:31;;;;;;;6.10;2.15;;;12.20;86.50;;;;;;5046260;28;20385;-67
2022/05/29 12:11:44;;;;;;;6.68;2.20;;;13.40;85.20;;;;;;5038400;28;20033;-67
2022/05/29 12:14:41;;;;;;;4.45;1.67;;;14.90;80.90;;;;;;5040642;28;20033;-67
2022/05/29 12:17:17;;;;;;;9.68;2.55;;;15.50;79.30;;;;;;5043188;28;20039;-67
2022/05/29 12:19:51;;;;;;;6.70;1.98;;;16.10;77.10;;;;;;5045237;28;20036;-67
2022/05/29 12:22:21;;;;;;;;;;;16.60;76.60;;;;;;5049426;28;20033;-67
2022/05/29 12:24:50;;;;;;;6.85;2.38;;;17.30;74.30;;;;;;5047231;28;19923;-68
2022/05/29 12:27:22;;;;;;;7.93;2.85;;;17.70;72.40;;;;;;5048051;28;20823;-68
2022/05/29 12:29:55;;;;;;;5.20;2.00;;;18.10;73.30;;;;;;5048435;28;20036;-67
2022/05/29 12:32:30;;;;;;;5.40;2.23;;;18.40;73.40;;;;;;5047294;28;20457;-67
2022/05/29 12:35:20;;;;;;;4.90;1.65;;;18.70;71.40;;;;;;5051493;28;20036;-67
2022/05/29 12:37:46;;;;;;;4.97;1.50;;;18.30;69.20;;;;;;5047941;28;20055;-67
2022/05/29 12:40:35;;;;;;;3.92;1.42;;;17.90;70.70;;;;;;5050941;28;20029;-67
2022/05/29 12:43:13;;;;;;;4.82;1.95;;;17.60;71.40;;;;;;5050453;28;20441;-68
2022/05/29 12:46:09;;;;;;;5.32;2.08;;;17.00;71.40;;;;;;5051358;28;20058;-67
2022/05/29 12:48:56;;;;;;;3.83;1.45;;;17.10;71.90;;;;;;5052021;28;20071;-67
2022/05/29 12:51:36;;;;;;;5.53;1.67;;;17.80;72.80;;;;;;5049920;28;20029;-67
2022/05/29 12:54:30;;;;;;;3.42;1.45;;;18.60;71.00;;;;;;5048219;28;20036;-67
2022/05/29 12:57:14;;;;;;;4.30;1.53;;;17.60;70.30;;;;;;5049231;28;20123;-67
2022/05/29 12:59:40;;;;;;;;;;;17.20;71.80;;;;;;5051803;28;20032;-67
2022/05/29 13:02:41;;;;;;;4.60;1.55;;;16.90;71.50;;;;;;5050113;28;20241;-67
2022/05/29 13:05:25;;;;;;;5.25;1.90;;;16.40;71.20;;;;;;5049831;28;20056;-67
2022/05/29 13:08:16;;;;;;;6.22;1.95;;;15.40;74.40;;;;;;5051517;28;20033;-67
2022/05/29 13:10:45;;;;;;;7.03;2.38;;;15.80;76.30;;;;;;5049662;28;20131;-67
2022/05/29 13:13:16;;;;;;;7.32;2.08;;;16.30;73.50;;;;;;5049924;28;20124;-67
2022/05/29 13:15:42;;;;;;;6.25;1.73;;;17.00;72.70;;;;;;5050719;28;20025;-68
2022/05/29 13:21:17;;;;;;;6.85;1.60;;;19.10;68.60;;;;;;5045575;28;20479;-67
2022/05/29 13:23:46;;;;;;;5.35;1.83;;;18.20;67.50;;;;;;5044077;28;20371;-67
2022/05/29 13:26:17;;;;;;;5.05;2.05;;;17.80;70.70;;;;;;5031985;28;20021;-67
2022/05/29 13:28:46;;;;;;;6.35;1.70;;;18.50;69.90;;;;;;5047728;28;20029;-67
2022/05/29 13:31:17;;;;;;;3.85;1.23;;;19.20;68.40;;;;;;5051300;28;20024;-68
2022/05/29 13:33:45;;;;;;;6.63;1.55;;;19.20;65.90;;;;;;5052998;28;20037;-67
2022/05/29 13:36:41;;;;;;;5.50;1.83;;;18.70;66.90;;;;;;5050021;28;20421;-68
2022/05/29 13:39:27;;;;;;;5.65;1.63;;;17.40;66.50;;;;;;5050931;28;20025;-67
2022/05/29 13:42:00;;;;;;;6.38;1.95;;;17.90;67.60;;;;;;5043491;28;20064;-67
2022/05/29 13:44:35;;;;;;;6.47;1.65;;;19.30;65.40;;;;;;5044120;28;20321;-67
2022/05/29 13:47:18;;;;;;;5.45;1.30;;;20.00;62.30;;;;;;5042118;28;20372;-67
2022/05/29 13:49:47;;;;;;;2.95;1.23;;;19.80;62.50;;;;;;5040953;28;20065;-67
2022/05/29 13:52:17;;;;;;;3.55;1.30;;;19.70;62.70;;;;;;5039141;28;20041;-66
2022/05/29 13:55:03;;;;;;;3.58;1.20;;;20.30;62.70;;;;;;5047164;28;20033;-68
2022/05/29 14:06:37;;;;;;;5.68;2.00;;;20.10;63.30;;;;;;5047189;28;20042;-68
2022/05/29 14:09:12;;;;;;;4.47;1.55;;;19.80;64.30;;;;;;5042376;28;20180;-68
2022/05/29 14:11:45;;;;;;;4.63;1.10;;;19.50;66.10;;;;;;5046433;28;20033;-67
2022/05/29 14:14:30;;;;;;;4.18;1.45;;;20.20;63.20;;;;;;5048360;28;20075;-67
2022/05/29 14:17:31;;;;;;;3.90;1.35;;;21.60;62.30;;;;;;5048553;28;20409;-67
2022/05/29 14:20:18;;;;;;;6.07;1.70;;;21.80;60.40;;;;;;5050780;28;20025;-67